Classifiche di sempre
Migliori tempi personali validi di team tra tutti gli eventi e le stagioni. Ogni team compare una sola volta per divisione.
Cerca per nome e apri la pagina in cui è classificato questo record di divisione.
137,321 team in classifica
| Pos. | Pos. AG | Team | Nazionalità | Categoria età | TempoMiglior tempo | Distacco |
|---|---|---|---|---|---|---|
| 127176 | #16342 | James Castanho & Paul EnebeliM 25-29 · AG #16342 | -- | M 25-29 | 1:38:24 | +50:44 |
| 127177 | #14892 | Luke Webb & Ryan FordGBR · M 35-39 · AG #14892 | GBR | M 35-39 | 1:38:24 | +50:44 |
| 127178 | #16343 | Cameron Cole & Daniel ForsterGBR · M 25-29 · AG #16343 | GBR | M 25-29 | 1:38:25 | +50:45 |
| 127179 | #46022 | Harveen Singh Johar & Filippo Dell’AndreaM 30-34 · AG #46022 | -- | M 30-34 | 1:38:25 | +50:45 |
| 127180 | #9382 | Remco De Vries & Renzo Van Der KlokNED · M 16-24 · AG #9382 | NED | M 16-24 | 1:38:25 | +50:45 |
| 127181 | #14893 | Cole Davis & Stephen DunganUSA · M 35-39 · AG #14893 | USA | M 35-39 | 1:38:25 | +50:45 |
| 127182 | #17983 | Marek Kubicki & Piotr SzkielaPOL · M 40-44 · AG #17983 | POL | M 40-44 | 1:38:25 | +50:45 |
| 127183 | #46023 | Matt Archer & Alec DonnaUSA · M 30-34 · AG #46023 | USA | M 30-34 | 1:38:25 | +50:45 |
| 127184 | #46024 | Arran Anderson & Arran AndersonGBR · M 30-34 · AG #46024 | GBR | M 30-34 | 1:38:25 | +50:45 |
| 127185 | #17985 | David Chatfield & Richard ColemanGBR · M 40-44 · AG #17985 | GBR | M 40-44 | 1:38:25 | +50:45 |
| 127186 | -- | Angie Callen & Gabe RietveldUSA · M MU29 | USA | M MU29 | 1:38:25 | +50:45 |
| 127187 | -- | Yoann Lemercier & Simon Tudella-CarliFRA · M MU29 | FRA | M MU29 | 1:38:25 | +50:45 |
| 127188 | #9383 | Erwin See & Narayanan VenkatakrishnanM 16-24 · AG #9383 | -- | M 16-24 | 1:38:25 | +50:45 |
| 127189 | #46025 | Marko Jovanovic & Luca SeclíM 30-34 · AG #46025 | -- | M 30-34 | 1:38:25 | +50:45 |
| 127190 | #9384 | Katlego Ngobeni & Jordan MackayRSA · M 16-24 · AG #9384 | RSA | M 16-24 | 1:38:25 | +50:45 |
| 127191 | #46026 | Julio César De La Cruz Magaña & Rubén Díaz JuárezMEX · M 30-34 · AG #46026 | MEX | M 30-34 | 1:38:26 | +50:46 |
| 127192 | #3870 | JAVIER IRIZAR ACILLONA & IGNACIO GOMEZA OCHOAESP · M 45-49 · AG #3870 | ESP | M 45-49 | 1:38:26 | +50:46 |
| 127193 | #16344 | 優雅 川涯 & 佐藤 哲郎JPN · M 25-29 · AG #16344 | JPN | M 25-29 | 1:38:26 | +50:46 |
| 127194 | #46027 | Pak Hei Keith Kwan & Ho Ching Paul Joshua SoM 30-34 · AG #46027 | -- | M 30-34 | 1:38:26 | +50:46 |
| 127195 | #46029 | Roman FAAMAUSILI & Jp FAAMAUSILISAM · M 30-34 · AG #46029 | SAM | M 30-34 | 1:38:26 | +50:46 |
| 127196 | #46030 | Dominic Tay & Caleb NeeSIN · M 30-34 · AG #46030 | SIN | M 30-34 | 1:38:26 | +50:46 |
| 127197 | #46031 | Nashrul Hadi Hanafi & Muhammad Ferus AmirSIN · M 30-34 · AG #46031 | SIN | M 30-34 | 1:38:26 | +50:46 |
| 127198 | #14894 | Cameron Douglas & Gavin GanasalingamM 35-39 · AG #14894 | -- | M 35-39 | 1:38:26 | +50:46 |
| 127199 | #16345 | Cameron Shaffner & Jamie ArmfieldGBR · M 25-29 · AG #16345 | GBR | M 25-29 | 1:38:26 | +50:46 |
| 127200 | #17986 | Kyaw Phyo Naung & Jovi Tan KySIN · M 40-44 · AG #17986 | SIN | M 40-44 | 1:38:26 | +50:46 |
Pagina 5,088 di 5,493